Time;durP1;ratioP1;P1;durP2;ratioP2;P2;SDS_P1;SDS_P2;PMS_P1;PMS_P2;Temp;Humidity;BMP_temperature;BMP_pressure;BME280_temperature;BME280_humidity;BME280_pressure;Samples;Min_cycle;Max_cycle;Signal;HPM_P1;HPM_P2
2022/04/09 00:01:03;;;;;;;2.92;0.75;;;4.60;99.90;;;;;;5075895;28;20054;-62
2022/04/09 00:03:29;;;;;;;0.98;0.85;;;4.70;99.90;;;;;;5074995;28;20112;-62
2022/04/09 00:05:55;;;;;;;11.15;1.08;;;4.70;99.90;;;;;;5075146;28;20099;-62
2022/04/09 00:08:20;;;;;;;1.42;1.23;;;4.60;99.90;;;;;;5072814;28;20033;-62
2022/04/09 00:10:46;;;;;;;0.80;0.80;;;4.40;99.90;;;;;;5077922;28;20024;-62
2022/04/09 00:13:11;;;;;;;0.65;0.65;;;4.30;99.90;;;;;;5076358;28;20016;-62
2022/04/09 00:15:37;;;;;;;2.05;1.25;;;4.30;99.90;;;;;;5076953;28;20047;-62
2022/04/09 00:18:03;;;;;;;2.25;1.00;;;4.30;99.90;;;;;;5073546;28;20447;-61
2022/04/09 00:20:28;;;;;;;1.00;0.90;;;4.30;99.90;;;;;;5066058;28;20024;-62
2022/04/09 00:22:54;;;;;;;0.77;0.77;;;4.40;99.90;;;;;;5081502;28;20021;-62
2022/04/09 00:25:24;;;;;;;1.52;1.13;;;4.50;99.90;;;;;;5076664;28;20035;-61
2022/04/09 00:27:51;;;;;;;1.65;0.85;;;4.50;99.90;;;;;;5078523;28;20048;-62
2022/04/09 00:30:16;;;;;;;1.08;0.90;;;4.60;99.90;;;;;;5079045;28;20044;-62
2022/04/09 00:32:42;;;;;;;1.20;0.90;;;4.60;99.90;;;;;;5076741;28;20790;-61
2022/04/09 00:35:08;;;;;;;2.55;1.33;;;4.60;99.90;;;;;;5079121;28;20027;-63
2022/04/09 00:37:44;;;;;;;1.05;0.93;;;4.60;99.90;;;;;;5076081;28;20142;-63
2022/04/09 00:40:12;;;;;;;0.85;0.70;;;4.60;99.90;;;;;;5074227;28;20032;-63
2022/04/09 00:42:41;;;;;;;0.80;0.80;;;4.70;99.90;;;;;;5075092;28;20387;-64
2022/04/09 00:45:08;;;;;;;1.75;1.10;;;4.70;99.90;;;;;;5080653;28;20383;-63
2022/04/09 00:47:35;;;;;;;2.13;1.08;;;4.70;99.90;;;;;;5064608;28;20067;-63
2022/04/09 00:50:01;;;;;;;1.45;0.95;;;4.70;99.90;;;;;;5083610;28;20523;-63
2022/04/09 00:52:30;;;;;;;1.20;0.80;;;4.70;99.90;;;;;;5075525;28;20040;-63
2022/04/09 00:54:57;;;;;;;1.30;1.10;;;4.60;99.90;;;;;;5076718;28;20028;-62
2022/04/09 00:57:25;;;;;;;2.22;1.02;;;4.60;99.90;;;;;;5054338;28;20024;-63
2022/04/09 00:59:54;;;;;;;1.48;1.15;;;4.60;99.90;;;;;;5076697;28;20021;-61
2022/04/09 01:02:20;;;;;;;2.08;1.00;;;4.50;99.90;;;;;;5077281;28;20043;-63
2022/04/09 01:04:47;;;;;;;0.70;0.70;;;4.60;99.90;;;;;;5075322;28;20512;-63
2022/04/09 01:07:14;;;;;;;2.25;1.25;;;4.70;99.90;;;;;;5077455;28;20023;-63
2022/04/09 01:09:39;;;;;;;3.72;1.80;;;4.70;99.90;;;;;;5073665;28;20020;-63
2022/04/09 01:12:05;;;;;;;11.32;1.25;;;4.80;99.90;;;;;;5078183;28;20029;-62
2022/04/09 01:14:34;;;;;;;4.95;1.48;;;4.80;99.90;;;;;;5074340;28;20380;-63
2022/04/09 01:17:00;;;;;;;2.83;1.23;;;4.80;99.90;;;;;;5077741;28;20020;-63
2022/04/09 01:19:25;;;;;;;1.92;1.50;;;4.80;99.90;;;;;;5074557;28;20017;-63
2022/04/09 01:21:54;;;;;;;3.47;1.42;;;4.80;99.90;;;;;;5080341;28;20028;-63
2022/04/09 01:24:19;;;;;;;3.08;1.13;;;4.80;99.90;;;;;;5076803;28;20050;-63
2022/04/09 01:26:45;;;;;;;3.15;1.88;;;4.80;99.90;;;;;;5079795;28;20470;-63
2022/04/09 01:29:11;;;;;;;5.60;1.00;;;4.80;99.90;;;;;;5079101;28;20028;-63
2022/04/09 01:31:37;;;;;;;4.80;1.92;;;4.80;99.90;;;;;;5074344;28;20077;-63
2022/04/09 01:34:02;;;;;;;1.75;1.02;;;4.80;99.90;;;;;;5078265;28;20028;-63
2022/04/09 01:36:28;;;;;;;2.30;1.38;;;4.80;99.90;;;;;;5062134;28;20023;-63
2022/04/09 01:38:53;;;;;;;0.77;0.75;;;4.80;99.90;;;;;;5073355;28;20027;-63
2022/04/09 01:41:19;;;;;;;2.60;1.52;;;4.80;99.90;;;;;;5078182;28;20840;-63
2022/04/09 01:43:44;;;;;;;3.05;1.27;;;4.80;99.90;;;;;;5076263;28;20052;-63
2022/04/09 01:46:10;;;;;;;12.13;1.52;;;4.70;99.90;;;;;;5085340;28;20032;-63
2022/04/09 01:48:36;;;;;;;0.90;0.85;;;4.80;99.90;;;;;;5078176;28;20484;-63
2022/04/09 01:51:01;;;;;;;1.20;0.98;;;4.80;99.90;;;;;;5083382;28;20399;-63
2022/04/09 01:53:27;;;;;;;3.13;1.17;;;4.80;99.90;;;;;;5069071;28;20020;-63
2022/04/09 01:55:53;;;;;;;0.80;0.80;;;4.80;99.90;;;;;;5078347;28;20024;-63
2022/04/09 01:58:19;;;;;;;5.85;2.00;;;4.70;99.90;;;;;;5077098;28;20090;-63
2022/04/09 02:00:45;;;;;;;0.70;0.70;;;4.80;99.90;;;;;;5084735;28;20016;-62
2022/04/09 02:03:11;;;;;;;1.60;1.08;;;4.80;99.90;;;;;;5077010;28;20082;-61
2022/04/09 02:05:36;;;;;;;1.52;1.08;;;4.70;99.90;;;;;;5077968;28;20502;-63
2022/04/09 02:08:02;;;;;;;1.08;0.90;;;4.70;99.90;;;;;;5068488;28;20035;-62
2022/04/09 02:10:30;;;;;;;1.02;0.90;;;4.70;99.90;;;;;;5080832;28;20024;-63
2022/04/09 02:12:55;;;;;;;0.82;0.77;;;4.70;99.90;;;;;;5083025;28;20422;-63
2022/04/09 02:15:21;;;;;;;1.27;0.75;;;4.80;99.90;;;;;;5064302;28;20016;-63
2022/04/09 02:17:46;;;;;;;2.28;1.30;;;4.70;99.90;;;;;;5081396;28;20035;-63
2022/04/09 02:20:14;;;;;;;2.22;1.23;;;4.70;99.90;;;;;;5065882;28;20037;-62
2022/04/09 02:22:42;;;;;;;2.50;1.15;;;4.70;99.90;;;;;;5084687;28;20020;-62
2022/04/09 02:25:11;;;;;;;3.17;1.45;;;4.80;99.90;;;;;;5079937;28;20031;-63
2022/04/09 02:27:37;;;;;;;0.85;0.85;;;4.70;99.90;;;;;;5080812;28;20102;-62
2022/04/09 02:30:06;;;;;;;7.82;1.60;;;4.70;99.90;;;;;;5081095;28;20431;-62
2022/04/09 02:32:31;;;;;;;0.95;0.88;;;4.70;99.90;;;;;;5082257;28;20035;-62
2022/04/09 02:34:57;;;;;;;3.67;1.90;;;4.70;99.90;;;;;;5067378;28;20430;-63
2022/04/09 02:37:23;;;;;;;4.97;2.15;;;4.70;99.90;;;;;;5078798;28;20077;-63
2022/04/09 02:39:48;;;;;;;5.10;1.63;;;4.70;99.90;;;;;;5083517;28;20044;-62
2022/04/09 02:42:14;;;;;;;3.95;1.77;;;4.70;99.90;;;;;;5081125;28;20012;-62
2022/04/09 02:44:41;;;;;;;3.20;1.10;;;4.70;99.90;;;;;;5065336;28;20512;-62
2022/04/09 02:47:07;;;;;;;3.95;1.38;;;4.80;99.90;;;;;;5080201;28;20050;-62
2022/04/09 02:49:33;;;;;;;2.22;1.25;;;4.80;99.90;;;;;;5081871;28;20046;-62
2022/04/09 02:51:58;;;;;;;2.05;1.38;;;4.80;99.90;;;;;;5081217;28;20536;-62
2022/04/09 02:54:24;;;;;;;7.90;2.22;;;4.80;99.90;;;;;;5074435;28;20074;-62
2022/04/09 02:56:50;;;;;;;3.05;1.58;;;4.70;99.90;;;;;;5080722;28;20028;-62
2022/04/09 02:59:15;;;;;;;10.95;2.08;;;4.70;99.90;;;;;;5074397;28;20029;-63
2022/04/09 03:01:45;;;;;;;3.80;1.48;;;4.60;99.90;;;;;;5081992;28;20069;-63
2022/04/09 03:04:11;;;;;;;3.80;1.27;;;4.60;99.90;;;;;;5078964;28;20020;-63
2022/04/09 03:06:36;;;;;;;6.18;2.05;;;4.60;99.90;;;;;;5058189;28;20614;-63
2022/04/09 03:09:03;;;;;;;2.60;1.40;;;4.60;99.90;;;;;;5077887;28;20024;-63
2022/04/09 03:11:28;;;;;;;1.60;1.15;;;4.60;99.90;;;;;;5075544;28;20054;-62
2022/04/09 03:13:54;;;;;;;4.78;1.67;;;4.60;99.90;;;;;;5081984;28;20070;-63
2022/04/09 03:16:19;;;;;;;6.85;1.25;;;4.60;99.90;;;;;;5076345;28;20142;-63
2022/04/09 03:18:45;;;;;;;3.50;1.60;;;4.60;99.90;;;;;;5077755;28;20111;-63
2022/04/09 03:21:11;;;;;;;10.68;1.30;;;4.60;99.90;;;;;;5079795;28;20499;-63
2022/04/09 03:23:36;;;;;;;7.18;1.05;;;4.70;99.90;;;;;;5077322;28;20024;-63
2022/04/09 03:26:02;;;;;;;1.90;1.35;;;4.70;99.90;;;;;;5066507;28;20074;-63
2022/04/09 03:28:27;;;;;;;3.38;1.80;;;4.70;99.90;;;;;;5078748;28;20392;-63
2022/04/09 03:30:53;;;;;;;2.45;1.20;;;4.70;99.90;;;;;;5076995;28;20031;-63
2022/04/09 03:33:19;;;;;;;0.77;0.77;;;4.70;99.90;;;;;;5066943;28;20031;-61
2022/04/09 03:35:46;;;;;;;1.05;0.88;;;4.70;99.90;;;;;;5060845;28;20013;-63
2022/04/09 03:38:12;;;;;;;1.35;1.23;;;4.70;99.90;;;;;;5065994;28;20430;-63
2022/04/09 03:40:38;;;;;;;1.92;1.25;;;4.70;99.90;;;;;;5061900;28;20020;-63
2022/04/09 03:43:04;;;;;;;4.57;1.35;;;4.70;99.90;;;;;;5077910;28;20025;-63
2022/04/09 03:45:30;;;;;;;13.45;1.65;;;4.70;99.90;;;;;;5076381;28;20042;-63
2022/04/09 03:47:55;;;;;;;2.28;1.38;;;4.60;99.90;;;;;;5056850;28;20070;-63
2022/04/09 03:50:21;;;;;;;7.13;3.38;;;4.60;99.90;;;;;;5067554;28;20028;-63
2022/04/09 03:52:46;;;;;;;5.95;2.05;;;4.60;99.90;;;;;;5076012;28;20021;-63
2022/04/09 03:55:13;;;;;;;3.28;1.38;;;4.60;99.90;;;;;;5078169;28;20107;-63
2022/04/09 03:57:39;;;;;;;4.13;2.17;;;4.50;99.90;;;;;;5073334;28;20020;-63
2022/04/09 04:00:05;;;;;;;5.75;1.52;;;4.60;99.90;;;;;;5073487;28;20025;-63
2022/04/09 04:02:31;;;;;;;1.58;1.27;;;4.60;99.90;;;;;;5076992;28;20478;-63
2022/04/09 04:05:02;;;;;;;3.88;1.65;;;4.60;99.90;;;;;;5077110;28;20024;-62
2022/04/09 04:07:28;;;;;;;4.65;1.83;;;4.60;99.90;;;;;;5074168;28;20017;-63
2022/04/09 04:09:53;;;;;;;1.33;0.88;;;4.60;99.90;;;;;;5078971;28;20530;-63
2022/04/09 04:12:19;;;;;;;2.78;0.90;;;4.50;99.90;;;;;;5066850;28;20054;-63
2022/04/09 04:14:45;;;;;;;2.28;1.15;;;4.60;99.90;;;;;;5076891;28;20471;-63
2022/04/09 04:17:11;;;;;;;3.40;1.55;;;4.60;99.90;;;;;;5072177;28;20024;-63
2022/04/09 04:19:37;;;;;;;0.90;0.82;;;4.60;99.90;;;;;;5064131;28;20021;-63
2022/04/09 04:22:03;;;;;;;3.65;1.10;;;4.50;99.90;;;;;;5083833;28;20082;-63
2022/04/09 04:24:29;;;;;;;1.08;0.88;;;4.60;99.90;;;;;;5066277;28;20024;-63
2022/04/09 04:26:54;;;;;;;1.52;1.00;;;4.60;99.90;;;;;;5085030;28;20414;-63
2022/04/09 04:29:20;;;;;;;7.10;1.83;;;4.60;99.90;;;;;;5078860;28;20449;-63
2022/04/09 04:31:45;;;;;;;1.38;0.95;;;4.60;99.90;;;;;;5074632;28;20035;-63
2022/04/09 04:34:11;;;;;;;2.17;1.63;;;4.50;99.90;;;;;;5075420;28;20044;-63
2022/04/09 04:36:36;;;;;;;1.15;1.08;;;4.40;99.90;;;;;;5082317;28;20021;-63
2022/04/09 04:39:02;;;;;;;3.90;1.67;;;4.40;99.90;;;;;;5075100;28;20085;-63
2022/04/09 04:41:28;;;;;;;1.42;1.08;;;4.40;99.90;;;;;;5078833;28;20027;-63
2022/04/09 04:43:54;;;;;;;12.18;2.15;;;4.30;99.90;;;;;;5078870;28;20024;-63
2022/04/09 04:46:20;;;;;;;5.22;3.13;;;4.30;99.90;;;;;;5079489;28;20058;-63
2022/04/09 04:48:46;;;;;;;3.65;1.08;;;4.30;99.90;;;;;;5078139;28;20902;-62
2022/04/09 04:51:12;;;;;;;3.38;1.58;;;4.20;99.90;;;;;;5082070;28;20061;-62
2022/04/09 04:53:38;;;;;;;2.28;1.85;;;4.10;99.90;;;;;;5068343;28;20042;-63
2022/04/09 04:56:04;;;;;;;2.00;1.52;;;4.10;99.90;;;;;;5079957;28;20029;-62
2022/04/09 04:58:29;;;;;;;3.30;1.73;;;4.00;99.90;;;;;;5073563;28;20476;-63
2022/04/09 05:00:55;;;;;;;5.22;1.65;;;4.00;99.90;;;;;;5081498;28;20023;-63
2022/04/09 05:03:21;;;;;;;13.20;2.58;;;3.90;99.90;;;;;;5053904;28;20024;-63
2022/04/09 05:05:47;;;;;;;1.38;1.02;;;3.90;99.90;;;;;;5082372;28;20028;-62
2022/04/09 05:08:12;;;;;;;2.13;1.27;;;3.90;99.90;;;;;;5078628;28;20111;-62
2022/04/09 05:10:38;;;;;;;4.25;1.20;;;4.00;99.90;;;;;;5079659;28;20521;-62
2022/04/09 05:13:04;;;;;;;4.68;1.77;;;4.10;99.90;;;;;;5082031;28;20028;-62
2022/04/09 05:15:29;;;;;;;4.93;1.55;;;4.10;99.90;;;;;;5074725;28;20027;-62
2022/04/09 05:17:55;;;;;;;2.65;1.27;;;4.20;99.90;;;;;;5081019;28;20031;-63
2022/04/09 05:20:21;;;;;;;2.40;1.58;;;4.30;99.90;;;;;;5081503;28;20023;-63
2022/04/09 05:22:46;;;;;;;7.63;1.95;;;4.30;99.90;;;;;;5082965;28;20024;-62
2022/04/09 05:25:14;;;;;;;3.78;1.65;;;4.30;99.90;;;;;;5080267;28;20027;-62
2022/04/09 05:27:40;;;;;;;4.25;2.03;;;4.40;99.90;;;;;;5078356;28;20043;-62
2022/04/09 05:30:07;;;;;;;9.70;1.02;;;4.40;99.90;;;;;;5064814;28;20086;-62
2022/04/09 05:32:32;;;;;;;1.73;0.95;;;4.30;99.90;;;;;;5078194;28;20498;-63
2022/04/09 05:34:58;;;;;;;0.88;0.70;;;4.30;99.90;;;;;;5083307;28;20021;-63
2022/04/09 05:37:27;;;;;;;2.42;1.38;;;4.30;99.90;;;;;;5070417;28;20031;-63
2022/04/09 05:39:54;;;;;;;0.98;0.82;;;4.40;99.90;;;;;;5078698;28;20540;-63
2022/04/09 05:42:22;;;;;;;2.40;1.85;;;4.40;99.90;;;;;;5071568;28;20123;-63
2022/04/09 05:44:48;;;;;;;0.90;0.75;;;4.50;99.90;;;;;;5081106;28;20020;-63
2022/04/09 05:47:13;;;;;;;7.03;2.15;;;4.50;99.90;;;;;;5061670;28;20525;-63
2022/04/09 05:49:39;;;;;;;3.72;0.70;;;4.50;99.90;;;;;;5085587;28;20107;-63
2022/04/09 05:52:05;;;;;;;5.95;1.88;;;4.60;99.90;;;;;;5071009;28;20128;-63
2022/04/09 05:54:31;;;;;;;0.80;0.80;;;4.60;99.90;;;;;;5078348;28;20029;-63
2022/04/09 05:56:58;;;;;;;4.50;1.63;;;4.70;99.90;;;;;;5078844;28;20020;-63
2022/04/09 05:59:26;;;;;;;1.30;1.20;;;4.70;99.90;;;;;;5077317;28;20111;-63
2022/04/09 06:01:52;;;;;;;1.42;1.10;;;4.90;99.90;;;;;;5077589;28;20062;-62
2022/04/09 06:04:20;;;;;;;7.15;2.45;;;4.90;99.90;;;;;;5075087;28;20016;-62
2022/04/09 06:06:46;;;;;;;6.07;1.27;;;4.90;99.90;;;;;;5073222;28;20862;-62
2022/04/09 06:09:13;;;;;;;5.85;1.55;;;4.90;99.90;;;;;;5075943;28;20636;-62
2022/04/09 06:11:38;;;;;;;4.70;1.90;;;5.00;99.90;;;;;;5067908;28;20475;-62
2022/04/09 06:14:04;;;;;;;4.03;1.90;;;5.00;99.90;;;;;;5079239;28;20023;-62
2022/04/09 06:16:30;;;;;;;4.22;1.70;;;4.90;99.90;;;;;;5075639;28;20021;-62
2022/04/09 06:18:56;;;;;;;10.68;2.00;;;4.90;99.90;;;;;;5078029;28;20128;-62
2022/04/09 06:21:21;;;;;;;0.98;0.95;;;4.90;99.90;;;;;;5060296;28;20036;-63
2022/04/09 06:23:47;;;;;;;1.95;1.00;;;5.00;99.90;;;;;;5075469;28;20025;-63
2022/04/09 06:26:13;;;;;;;2.88;1.48;;;5.10;99.90;;;;;;5065175;28;20040;-62
2022/04/09 06:28:38;;;;;;;5.70;1.55;;;5.10;99.90;;;;;;5078816;28;20476;-62
2022/04/09 06:31:04;;;;;;;2.30;1.27;;;5.10;99.90;;;;;;5070406;28;20020;-62
2022/04/09 06:33:29;;;;;;;2.83;1.50;;;5.10;99.90;;;;;;5057324;28;20017;-62
2022/04/09 06:35:55;;;;;;;1.35;0.98;;;5.10;99.90;;;;;;5070667;28;20040;-62
2022/04/09 06:38:21;;;;;;;23.15;2.53;;;5.10;99.90;;;;;;5073336;28;20012;-62
2022/04/09 06:40:46;;;;;;;2.92;1.33;;;5.00;99.90;;;;;;5073024;28;20028;-62
2022/04/09 06:43:12;;;;;;;3.17;1.92;;;5.00;99.90;;;;;;5072959;28;20384;-62
2022/04/09 06:45:37;;;;;;;12.18;1.65;;;5.00;99.90;;;;;;5068071;28;20404;-62
2022/04/09 06:48:03;;;;;;;5.95;1.67;;;5.00;99.90;;;;;;5074113;28;20021;-62
2022/04/09 06:50:29;;;;;;;1.83;1.27;;;4.90;99.90;;;;;;5070068;28;20037;-62
2022/04/09 06:52:54;;;;;;;2.08;1.25;;;4.90;99.90;;;;;;5070897;28;20025;-63
2022/04/09 06:55:20;;;;;;;10.57;3.47;;;5.00;99.90;;;;;;5081044;28;20590;-63
2022/04/09 06:57:46;;;;;;;6.93;2.63;;;5.10;99.90;;;;;;5058272;28;20028;-62
2022/04/09 07:00:14;;;;;;;0.80;0.80;;;5.10;99.90;;;;;;5065621;28;20066;-63
2022/04/09 07:02:40;;;;;;;1.00;0.85;;;5.10;99.90;;;;;;5079860;28;20031;-62
2022/04/09 07:05:07;;;;;;;8.57;1.83;;;5.10;99.90;;;;;;5078190;28;20024;-62
2022/04/09 07:07:33;;;;;;;4.03;1.50;;;5.20;99.90;;;;;;5075885;28;20025;-62
2022/04/09 07:10:10;;;;;;;4.90;1.88;;;5.10;99.90;;;;;;5078771;28;20040;-62
2022/04/09 07:12:36;;;;;;;1.05;0.93;;;5.20;99.90;;;;;;5068422;28;20578;-62
2022/04/09 07:15:02;;;;;;;1.75;1.05;;;5.50;99.90;;;;;;5082126;28;20027;-62
2022/04/09 07:17:29;;;;;;;4.00;1.17;;;5.70;99.90;;;;;;5075312;28;20020;-62
2022/04/09 07:20:04;;;;;;;1.33;0.95;;;5.80;99.90;;;;;;5054317;28;20028;-62
2022/04/09 07:22:30;;;;;;;7.40;1.30;;;6.00;99.90;;;;;;5076863;28;20533;-62
2022/04/09 07:24:56;;;;;;;1.75;1.05;;;6.10;99.90;;;;;;5083376;28;20095;-62
2022/04/09 07:27:33;;;;;;;1.58;1.17;;;6.20;99.90;;;;;;5077856;28;20120;-62
2022/04/09 07:29:58;;;;;;;7.30;1.20;;;6.20;99.90;;;;;;5080968;28;20530;-62
2022/04/09 07:32:24;;;;;;;6.07;1.48;;;6.10;99.90;;;;;;5080515;28;20020;-62
2022/04/09 07:34:49;;;;;;;6.28;2.67;;;6.20;99.90;;;;;;5082397;28;20032;-62
2022/04/09 07:37:15;;;;;;;0.70;0.70;;;6.30;99.90;;;;;;5080434;28;20375;-62
2022/04/09 07:39:40;;;;;;;8.88;1.90;;;6.30;99.90;;;;;;5080677;28;20149;-64
2022/04/09 07:42:06;;;;;;;1.75;1.20;;;6.20;99.90;;;;;;5062277;28;20059;-64
2022/04/09 07:44:32;;;;;;;0.82;0.82;;;6.20;99.90;;;;;;5076974;28;20032;-64
2022/04/09 07:46:58;;;;;;;4.97;1.48;;;6.20;99.90;;;;;;5084821;28;20024;-64
2022/04/09 07:49:23;;;;;;;2.63;1.40;;;6.40;99.90;;;;;;5083031;28;20111;-64
2022/04/09 07:51:49;;;;;;;2.20;1.17;;;6.20;99.90;;;;;;5079341;28;20926;-65
2022/04/09 07:54:15;;;;;;;3.05;1.55;;;6.20;99.90;;;;;;5073729;28;20391;-64
2022/04/09 07:56:41;;;;;;;4.18;1.27;;;6.30;99.90;;;;;;5066341;28;20074;-64
2022/04/09 07:59:07;;;;;;;4.15;1.60;;;6.40;99.90;;;;;;5075263;28;20044;-64
2022/04/09 08:01:32;;;;;;;3.50;1.50;;;6.30;99.90;;;;;;5073007;28;20063;-66
2022/04/09 08:03:58;;;;;;;5.00;1.42;;;6.40;99.90;;;;;;5083705;28;20020;-66
2022/04/09 08:06:23;;;;;;;1.13;0.90;;;6.40;99.90;;;;;;5073341;28;20020;-65
2022/04/09 08:08:49;;;;;;;2.25;0.95;;;6.40;99.90;;;;;;5074364;28;20028;-67
2022/04/09 08:11:15;;;;;;;5.53;0.95;;;6.40;99.90;;;;;;5075830;28;20024;-67
2022/04/09 08:13:40;;;;;;;6.93;2.40;;;6.60;99.90;;;;;;5083409;28;20031;-67
2022/04/09 08:16:06;;;;;;;2.75;1.13;;;6.70;99.90;;;;;;5077777;28;20427;-65
2022/04/09 08:18:31;;;;;;;2.30;1.08;;;6.70;99.90;;;;;;5079757;28;20570;-65
2022/04/09 08:20:57;;;;;;;2.97;1.20;;;7.00;99.90;;;;;;5078611;28;20506;-65
2022/04/09 08:23:23;;;;;;;4.95;1.67;;;7.00;99.90;;;;;;5073270;28;20029;-66
2022/04/09 08:25:49;;;;;;;1.33;0.80;;;7.10;99.90;;;;;;5078159;28;20036;-65
2022/04/09 08:28:14;;;;;;;5.45;1.70;;;7.50;99.90;;;;;;5062596;28;20113;-65
2022/04/09 08:30:41;;;;;;;8.50;1.65;;;7.50;99.90;;;;;;5083663;28;20067;-65
2022/04/09 08:33:07;;;;;;;8.90;2.63;;;7.40;99.90;;;;;;5082218;28;20024;-67
2022/04/09 08:35:33;;;;;;;6.55;2.50;;;6.80;99.90;;;;;;5077401;28;20021;-66
2022/04/09 08:37:58;;;;;;;3.33;1.55;;;6.40;99.90;;;;;;5067110;28;20103;-66
2022/04/09 08:40:25;;;;;;;8.82;2.30;;;6.60;99.90;;;;;;5076079;28;20134;-66
2022/04/09 08:42:52;;;;;;;5.05;2.15;;;6.90;99.90;;;;;;5065171;28;20027;-66
2022/04/09 08:45:18;;;;;;;3.55;1.75;;;7.30;99.90;;;;;;5066234;28;20024;-66
2022/04/09 08:47:45;;;;;;;4.30;1.42;;;7.90;99.90;;;;;;5077380;28;20030;-66
2022/04/09 08:50:12;;;;;;;1.83;0.80;;;8.90;99.90;;;;;;5079408;28;20024;-65
2022/04/09 08:52:40;;;;;;;2.67;1.42;;;9.40;99.90;;;;;;5078793;28;20115;-66
2022/04/09 08:55:07;;;;;;;9.80;1.67;;;9.10;99.90;;;;;;5084221;28;20024;-66
2022/04/09 08:57:34;;;;;;;4.85;1.45;;;8.60;99.90;;;;;;5082659;28;20361;-64
2022/04/09 09:00:07;;;;;;;3.47;1.63;;;8.10;99.90;;;;;;5073228;28;20024;-64
2022/04/09 09:02:47;;;;;;;2.42;1.23;;;7.90;99.90;;;;;;5086424;28;20017;-64
2022/04/09 09:05:26;;;;;;;;;;;8.00;99.90;;;;;;5081999;28;20468;-63
2022/04/09 09:07:52;;;;;;;4.32;2.10;;;7.50;99.90;;;;;;5078634;28;19911;-62
2022/04/09 09:10:19;;;;;;;2.80;1.38;;;7.30;99.90;;;;;;5083462;28;20472;-62
2022/04/09 09:13:00;;;;;;;4.07;1.70;;;7.60;99.90;;;;;;5083929;28;20043;-63
2022/04/09 09:15:26;;;;;;;4.25;1.88;;;8.30;99.90;;;;;;5085277;28;20027;-62
2022/04/09 09:17:56;;;;;;;3.72;1.67;;;8.70;99.90;;;;;;5087496;28;20021;-62
2022/04/09 09:20:22;;;;;;;;;;;8.90;99.90;;;;;;5084735;28;20048;-62
2022/04/09 09:22:49;;;;;;;10.98;2.17;;;8.80;99.90;;;;;;5082139;28;20326;-60
2022/04/09 09:25:14;;;;;;;8.02;1.77;;;9.30;99.90;;;;;;5084767;28;20494;-62
2022/04/09 09:27:41;;;;;;;2.83;1.23;;;8.60;99.90;;;;;;5078204;28;20056;-62
2022/04/09 09:30:09;;;;;;;3.15;1.33;;;8.40;99.90;;;;;;5077972;28;20613;-62
2022/04/09 09:32:35;;;;;;;5.28;1.88;;;8.70;99.90;;;;;;5085130;28;20095;-62
2022/04/09 09:35:00;;;;;;;3.40;1.70;;;8.90;99.90;;;;;;5059739;28;20556;-60
2022/04/09 09:37:28;;;;;;;3.38;1.17;;;9.30;99.90;;;;;;5079504;28;20032;-62
2022/04/09 09:39:54;;;;;;;4.10;1.95;;;8.90;99.90;;;;;;5079548;28;20012;-62
2022/04/09 09:42:26;;;;;;;2.78;1.30;;;8.80;99.90;;;;;;5077257;28;20032;-62
2022/04/09 09:44:51;;;;;;;4.60;1.88;;;8.80;99.90;;;;;;5084121;28;20020;-62
2022/04/09 09:47:17;;;;;;;2.65;1.40;;;8.70;99.90;;;;;;5080955;28;20027;-62
2022/04/09 09:50:07;;;;;;;4.47;1.42;;;8.40;99.90;;;;;;5082382;28;20021;-62
2022/04/09 09:52:34;;;;;;;3.08;1.40;;;8.30;99.90;;;;;;5077616;28;20032;-62
2022/04/09 09:55:14;;;;;;;2.70;1.27;;;8.30;99.90;;;;;;5078537;28;20078;-62
2022/04/09 09:57:40;;;;;;;5.38;1.60;;;8.10;99.90;;;;;;5074871;28;20029;-62
2022/04/09 10:00:10;;;;;;;5.80;1.85;;;8.30;99.90;;;;;;5087219;28;20030;-62
2022/04/09 10:02:37;;;;;;;2.20;1.02;;;8.30;99.90;;;;;;5070973;28;20398;-62
2022/04/09 10:05:04;;;;;;;4.65;1.52;;;7.80;99.90;;;;;;5080232;28;20029;-63
2022/04/09 10:07:30;;;;;;;3.03;1.08;;;7.10;99.90;;;;;;5080813;28;20024;-62
2022/04/09 10:09:56;;;;;;;2.15;0.82;;;6.20;99.90;;;;;;5072098;28;20028;-63
2022/04/09 10:12:25;;;;;;;3.85;1.13;;;6.00;99.90;;;;;;5084147;28;20507;-63
2022/04/09 10:14:55;;;;;;;2.55;0.95;;;5.80;99.90;;;;;;5063152;28;20031;-63
2022/04/09 10:17:21;;;;;;;1.67;0.73;;;5.90;99.90;;;;;;5081638;28;20043;-63
2022/04/09 10:19:58;;;;;;;4.65;1.40;;;5.90;99.90;;;;;;5059306;28;20028;-63
2022/04/09 10:22:30;;;;;;;4.32;0.90;;;6.20;99.90;;;;;;5076425;28;20028;-62
2022/04/09 10:24:58;;;;;;;2.08;1.02;;;6.50;99.90;;;;;;5079005;28;20024;-62
2022/04/09 10:27:42;;;;;;;3.35;1.45;;;7.20;99.90;;;;;;5081438;28;20592;-62
2022/04/09 10:30:21;;;;;;;1.05;0.75;;;8.00;99.90;;;;;;5078199;28;20036;-62
2022/04/09 10:32:52;;;;;;;0.80;0.60;;;8.90;99.90;;;;;;5085726;28;20017;-62
2022/04/09 10:35:38;;;;;;;1.52;0.77;;;9.60;99.90;;;;;;5086754;28;20165;-60
2022/04/09 10:38:07;;;;;;;1.00;0.70;;;10.00;99.90;;;;;;5084270;28;20016;-61
2022/04/09 10:40:55;;;;;;;1.42;0.80;;;10.60;99.90;;;;;;5088801;28;20031;-62
2022/04/09 10:43:26;;;;;;;2.00;0.88;;;9.80;99.90;;;;;;5029024;28;20032;-63
2022/04/09 10:46:00;;;;;;;2.50;1.00;;;9.70;99.90;;;;;;5074212;28;20078;-63
2022/04/09 10:48:33;;;;;;;2.60;1.02;;;10.20;99.90;;;;;;5070974;28;20020;-63
2022/04/09 10:51:02;;;;;;;3.13;1.15;;;9.30;99.90;;;;;;5075015;28;20024;-63
2022/04/09 10:53:32;;;;;;;1.35;0.90;;;9.30;99.90;;;;;;5074793;28;20020;-62
2022/04/09 10:56:12;;;;;;;2.42;1.17;;;9.70;99.90;;;;;;5081459;28;20538;-63
2022/04/09 10:59:12;;;;;;;1.85;0.95;;;10.40;99.90;;;;;;5080966;28;20105;-63
2022/04/09 11:01:46;;;;;;;1.85;0.82;;;10.30;99.90;;;;;;5019439;28;20499;-63
2022/04/09 11:04:36;;;;;;;2.10;0.80;;;10.20;99.90;;;;;;5078958;28;20388;-63
2022/04/09 11:07:15;;;;;;;1.27;0.63;;;10.10;99.90;;;;;;5074566;28;20024;-63
2022/04/09 11:09:57;;;;;;;0.88;0.80;;;6.30;99.90;;;;;;5078177;28;20032;-62
2022/04/09 11:12:42;;;;;;;0.60;0.60;;;5.70;99.90;;;;;;5078604;28;20099;-62
2022/04/09 11:15:19;;;;;;;0.60;0.60;;;5.60;99.90;;;;;;5070479;28;20032;-62
2022/04/09 11:17:46;;;;;;;1.67;1.05;;;5.60;99.90;;;;;;5080215;28;20093;-63
2022/04/09 11:20:16;;;;;;;0.60;0.60;;;5.50;99.90;;;;;;5077539;28;20035;-63
2022/04/09 11:22:47;;;;;;;;;;;5.50;99.90;;;;;;5067526;28;20046;-63
2022/04/09 11:25:24;;;;;;;0.70;0.70;;;5.60;99.90;;;;;;5085463;28;19908;-63
2022/04/09 11:28:05;;;;;;;0.85;0.70;;;5.50;99.90;;;;;;5078430;28;20074;-63
2022/04/09 11:30:30;;;;;;;0.88;0.80;;;5.50;99.90;;;;;;5082818;28;20032;-63
2022/04/09 11:32:56;;;;;;;1.77;0.95;;;5.50;99.90;;;;;;5064089;28;20116;-63
2022/04/09 11:35:24;;;;;;;0.95;0.80;;;5.30;99.90;;;;;;5085281;28;20467;-62
2022/04/09 11:37:51;;;;;;;9.40;0.98;;;5.50;99.90;;;;;;5078473;28;20054;-63
2022/04/09 11:40:19;;;;;;;1.73;0.95;;;5.70;99.90;;;;;;5076349;28;20444;-63
2022/04/09 11:42:49;;;;;;;0.80;0.80;;;5.60;99.90;;;;;;5065851;28;20063;-63
2022/04/09 11:45:27;;;;;;;2.55;1.25;;;5.10;99.90;;;;;;5078494;28;20698;-63
2022/04/09 11:47:55;;;;;;;1.63;1.00;;;4.50;99.90;;;;;;5076876;28;20055;-63
2022/04/09 11:50:21;;;;;;;0.93;0.80;;;4.50;99.90;;;;;;5061038;28;20021;-63
2022/04/09 11:52:47;;;;;;;6.03;1.58;;;4.60;99.90;;;;;;5079276;28;20033;-62
2022/04/09 11:55:14;;;;;;;1.13;0.90;;;4.50;99.90;;;;;;5083413;28;20028;-63
2022/04/09 11:57:51;;;;;;;0.70;0.70;;;4.50;99.90;;;;;;5075032;28;20028;-64
2022/04/09 12:00:20;;;;;;;1.05;0.82;;;4.50;99.90;;;;;;5078660;28;20024;-63
2022/04/09 12:02:45;;;;;;;1.27;0.88;;;4.10;99.90;;;;;;5081603;28;20387;-63
2022/04/09 12:05:12;;;;;;;0.60;0.60;;;4.00;99.90;;;;;;5080299;28;20024;-62
2022/04/09 12:07:43;;;;;;;1.75;0.85;;;3.90;99.90;;;;;;5068271;28;20016;-64
2022/04/09 12:10:22;;;;;;;1.23;0.75;;;4.10;99.90;;;;;;5082981;28;20028;-63
2022/04/09 12:13:07;;;;;;;0.50;0.50;;;4.30;99.90;;;;;;5060752;28;20035;-63
2022/04/09 12:15:35;;;;;;;1.40;0.85;;;4.50;99.90;;;;;;5081601;28;20032;-63
2022/04/09 12:18:04;;;;;;;0.77;0.75;;;4.40;99.90;;;;;;5081910;28;20016;-63
2022/04/09 12:20:35;;;;;;;0.70;0.70;;;4.80;99.90;;;;;;5082118;28;20027;-63
2022/04/09 12:23:02;;;;;;;0.82;0.60;;;5.00;99.90;;;;;;5055710;28;20119;-64
2022/04/09 12:25:39;;;;;;;0.98;0.80;;;5.80;99.90;;;;;;5079455;28;20028;-64
2022/04/09 12:28:19;;;;;;;1.38;0.88;;;7.40;99.90;;;;;;5074730;28;20527;-64
2022/04/09 12:30:47;;;;;;;1.00;0.70;;;8.50;99.90;;;;;;5066536;28;20035;-64
2022/04/09 12:33:13;;;;;;;0.63;0.60;;;8.60;99.90;;;;;;5079786;28;20044;-62
2022/04/09 12:35:40;;;;;;;1.67;0.93;;;9.50;99.90;;;;;;5059612;28;20104;-62
2022/04/09 12:38:06;;;;;;;1.05;0.75;;;10.10;99.90;;;;;;5079008;28;20037;-62
2022/04/09 12:40:32;;;;;;;2.83;1.00;;;10.50;99.90;;;;;;5077899;28;20053;-62
2022/04/09 12:43:03;;;;;;;0.75;0.63;;;10.80;99.90;;;;;;5082032;28;20039;-62
2022/04/09 12:45:29;;;;;;;3.38;0.95;;;11.50;99.90;;;;;;5081835;28;20032;-62
2022/04/09 12:47:59;;;;;;;2.67;1.10;;;11.70;99.90;;;;;;5078783;28;20368;-61
2022/04/09 12:50:31;;;;;;;23.92;0.98;;;12.20;99.90;;;;;;5063596;28;20376;-62
2022/04/09 12:52:58;;;;;;;0.63;0.63;;;12.00;99.90;;;;;;5080891;28;20036;-62
2022/04/09 12:55:25;;;;;;;0.93;0.63;;;12.00;99.90;;;;;;5080396;28;20028;-63
2022/04/09 12:57:52;;;;;;;0.60;0.60;;;12.90;99.90;;;;;;5062593;28;20078;-63
2022/04/09 13:00:19;;;;;;;0.93;0.77;;;12.20;99.90;;;;;;5078263;28;20574;-63